sensor_id;sensor_type;location;lat;lon;timestamp;temperature;humidity
20045;DHT22;10183;47.808;9.476;2023-12-14T00:02:15;5.00;99.90
20045;DHT22;10183;47.808;9.476;2023-12-14T00:05:01;4.90;99.90
20045;DHT22;10183;47.808;9.476;2023-12-14T00:07:47;4.90;99.90
20045;DHT22;10183;47.808;9.476;2023-12-14T00:10:33;4.90;99.90
20045;DHT22;10183;47.808;9.476;2023-12-14T00:13:18;4.90;99.90
20045;DHT22;10183;47.808;9.476;2023-12-14T00:16:05;4.90;99.90
20045;DHT22;10183;47.808;9.476;2023-12-14T00:18:51;4.90;99.90
20045;DHT22;10183;47.808;9.476;2023-12-14T00:21:37;4.90;99.90
20045;DHT22;10183;47.808;9.476;2023-12-14T00:24:23;4.90;99.90
20045;DHT22;10183;47.808;9.476;2023-12-14T00:27:09;4.80;99.90
20045;DHT22;10183;47.808;9.476;2023-12-14T00:29:55;4.80;99.90
20045;DHT22;10183;47.808;9.476;2023-12-14T00:32:41;4.90;99.90
20045;DHT22;10183;47.808;9.476;2023-12-14T00:35:26;4.80;99.90
20045;DHT22;10183;47.808;9.476;2023-12-14T00:38:12;4.80;99.90
20045;DHT22;10183;47.808;9.476;2023-12-14T00:40:58;4.80;99.90
20045;DHT22;10183;47.808;9.476;2023-12-14T00:43:44;4.80;99.90
20045;DHT22;10183;47.808;9.476;2023-12-14T00:46:31;4.80;99.90
20045;DHT22;10183;47.808;9.476;2023-12-14T00:49:17;4.80;99.90
20045;DHT22;10183;47.808;9.476;2023-12-14T00:52:05;4.90;99.90
20045;DHT22;10183;47.808;9.476;2023-12-14T00:54:51;4.90;99.90
20045;DHT22;10183;47.808;9.476;2023-12-14T00:57:37;4.80;99.90
20045;DHT22;10183;47.808;9.476;2023-12-14T01:00:23;4.80;99.90
20045;DHT22;10183;47.808;9.476;2023-12-14T01:03:09;4.80;99.90
20045;DHT22;10183;47.808;9.476;2023-12-14T01:05:55;4.80;99.90
20045;DHT22;10183;47.808;9.476;2023-12-14T01:08:41;4.80;99.90
20045;DHT22;10183;47.808;9.476;2023-12-14T01:11:26;4.80;99.90
20045;DHT22;10183;47.808;9.476;2023-12-14T01:14:12;4.80;99.90
20045;DHT22;10183;47.808;9.476;2023-12-14T01:16:58;4.70;99.90
20045;DHT22;10183;47.808;9.476;2023-12-14T01:19:44;4.80;99.90
20045;DHT22;10183;47.808;9.476;2023-12-14T01:22:30;4.80;99.90
20045;DHT22;10183;47.808;9.476;2023-12-14T01:25:16;4.70;99.90
20045;DHT22;10183;47.808;9.476;2023-12-14T01:28:02;4.70;99.90
20045;DHT22;10183;47.808;9.476;2023-12-14T01:30:48;4.70;99.90
20045;DHT22;10183;47.808;9.476;2023-12-14T01:33:34;4.70;99.90
20045;DHT22;10183;47.808;9.476;2023-12-14T01:36:24;4.70;99.90
20045;DHT22;10183;47.808;9.476;2023-12-14T01:39:10;4.60;99.90
20045;DHT22;10183;47.808;9.476;2023-12-14T01:41:56;4.60;99.90
20045;DHT22;10183;47.808;9.476;2023-12-14T01:44:42;4.70;99.90
20045;DHT22;10183;47.808;9.476;2023-12-14T01:47:28;4.60;99.90
20045;DHT22;10183;47.808;9.476;2023-12-14T01:50:14;4.60;99.90
20045;DHT22;10183;47.808;9.476;2023-12-14T01:53:00;4.60;99.90
20045;DHT22;10183;47.808;9.476;2023-12-14T01:55:46;4.50;99.90
20045;DHT22;10183;47.808;9.476;2023-12-14T01:58:32;4.50;99.90
20045;DHT22;10183;47.808;9.476;2023-12-14T02:01:23;4.60;99.90
20045;DHT22;10183;47.808;9.476;2023-12-14T02:04:12;4.50;99.90
20045;DHT22;10183;47.808;9.476;2023-12-14T02:06:58;4.50;99.90
20045;DHT22;10183;47.808;9.476;2023-12-14T02:09:45;4.50;99.90
20045;DHT22;10183;47.808;9.476;2023-12-14T02:12:31;4.50;99.90
20045;DHT22;10183;47.808;9.476;2023-12-14T02:15:19;4.50;99.90
20045;DHT22;10183;47.808;9.476;2023-12-14T02:18:06;4.50;99.90
20045;DHT22;10183;47.808;9.476;2023-12-14T02:20:52;4.50;99.90
20045;DHT22;10183;47.808;9.476;2023-12-14T02:23:45;4.50;99.90
20045;DHT22;10183;47.808;9.476;2023-12-14T02:26:31;4.50;99.90
20045;DHT22;10183;47.808;9.476;2023-12-14T02:29:17;4.60;99.90
20045;DHT22;10183;47.808;9.476;2023-12-14T02:32:03;4.50;99.90
20045;DHT22;10183;47.808;9.476;2023-12-14T02:34:49;4.60;99.90
20045;DHT22;10183;47.808;9.476;2023-12-14T02:37:35;4.60;99.90
20045;DHT22;10183;47.808;9.476;2023-12-14T02:40:27;4.60;99.90
20045;DHT22;10183;47.808;9.476;2023-12-14T02:43:13;4.70;99.90
20045;DHT22;10183;47.808;9.476;2023-12-14T02:45:59;4.70;99.90
20045;DHT22;10183;47.808;9.476;2023-12-14T02:48:47;4.70;99.90
20045;DHT22;10183;47.808;9.476;2023-12-14T02:51:33;4.70;99.90
20045;DHT22;10183;47.808;9.476;2023-12-14T02:54:19;4.70;99.90
20045;DHT22;10183;47.808;9.476;2023-12-14T02:57:05;4.60;99.90
20045;DHT22;10183;47.808;9.476;2023-12-14T02:59:51;4.70;99.90
20045;DHT22;10183;47.808;9.476;2023-12-14T03:02:37;4.70;99.90
20045;DHT22;10183;47.808;9.476;2023-12-14T03:05:23;4.70;99.90
20045;DHT22;10183;47.808;9.476;2023-12-14T03:08:09;4.70;99.90
20045;DHT22;10183;47.808;9.476;2023-12-14T03:10:55;4.70;99.90
20045;DHT22;10183;47.808;9.476;2023-12-14T03:13:41;4.70;99.90
20045;DHT22;10183;47.808;9.476;2023-12-14T03:16:27;4.70;99.90
20045;DHT22;10183;47.808;9.476;2023-12-14T03:19:13;4.70;99.90
20045;DHT22;10183;47.808;9.476;2023-12-14T03:21:59;4.70;99.90
20045;DHT22;10183;47.808;9.476;2023-12-14T03:24:45;4.70;99.90
20045;DHT22;10183;47.808;9.476;2023-12-14T03:27:31;4.70;99.90
20045;DHT22;10183;47.808;9.476;2023-12-14T03:30:17;4.70;99.90
20045;DHT22;10183;47.808;9.476;2023-12-14T03:33:03;4.70;99.90
20045;DHT22;10183;47.808;9.476;2023-12-14T03:35:51;4.70;99.90
20045;DHT22;10183;47.808;9.476;2023-12-14T03:38:37;4.70;99.90
20045;DHT22;10183;47.808;9.476;2023-12-14T03:41:22;4.70;99.90
20045;DHT22;10183;47.808;9.476;2023-12-14T03:44:09;4.70;99.90
20045;DHT22;10183;47.808;9.476;2023-12-14T03:46:54;4.80;99.90
20045;DHT22;10183;47.808;9.476;2023-12-14T03:49:41;4.80;99.90
20045;DHT22;10183;47.808;9.476;2023-12-14T03:52:27;4.70;99.90
20045;DHT22;10183;47.808;9.476;2023-12-14T03:55:16;4.70;99.90
20045;DHT22;10183;47.808;9.476;2023-12-14T03:58:02;4.70;99.90
20045;DHT22;10183;47.808;9.476;2023-12-14T04:00:48;4.70;99.90
20045;DHT22;10183;47.808;9.476;2023-12-14T04:03:35;4.70;99.90
20045;DHT22;10183;47.808;9.476;2023-12-14T04:06:21;4.70;99.90
20045;DHT22;10183;47.808;9.476;2023-12-14T04:09:07;4.70;99.90
20045;DHT22;10183;47.808;9.476;2023-12-14T04:11:53;4.70;99.90
20045;DHT22;10183;47.808;9.476;2023-12-14T04:14:39;4.70;99.90
20045;DHT22;10183;47.808;9.476;2023-12-14T04:17:25;4.70;99.90
20045;DHT22;10183;47.808;9.476;2023-12-14T04:20:13;4.70;99.90
20045;DHT22;10183;47.808;9.476;2023-12-14T04:23:00;4.70;99.90
20045;DHT22;10183;47.808;9.476;2023-12-14T04:25:45;4.70;99.90
20045;DHT22;10183;47.808;9.476;2023-12-14T04:28:31;4.80;99.90
20045;DHT22;10183;47.808;9.476;2023-12-14T04:31:17;4.80;99.90
20045;DHT22;10183;47.808;9.476;2023-12-14T04:34:03;4.70;99.90
20045;DHT22;10183;47.808;9.476;2023-12-14T04:36:49;4.70;99.90
20045;DHT22;10183;47.808;9.476;2023-12-14T04:39:35;4.70;99.90
20045;DHT22;10183;47.808;9.476;2023-12-14T04:42:21;4.80;99.90
20045;DHT22;10183;47.808;9.476;2023-12-14T04:45:07;4.80;99.90
20045;DHT22;10183;47.808;9.476;2023-12-14T04:47:56;4.80;99.90
20045;DHT22;10183;47.808;9.476;2023-12-14T04:50:42;4.80;99.90
20045;DHT22;10183;47.808;9.476;2023-12-14T04:53:28;4.80;99.90
20045;DHT22;10183;47.808;9.476;2023-12-14T04:56:14;4.80;99.90
20045;DHT22;10183;47.808;9.476;2023-12-14T04:59:00;4.80;99.90
20045;DHT22;10183;47.808;9.476;2023-12-14T05:01:46;4.80;99.90
20045;DHT22;10183;47.808;9.476;2023-12-14T05:04:32;4.80;99.90
20045;DHT22;10183;47.808;9.476;2023-12-14T05:07:18;4.80;99.90
20045;DHT22;10183;47.808;9.476;2023-12-14T05:10:04;4.90;99.90
20045;DHT22;10183;47.808;9.476;2023-12-14T05:12:50;4.90;99.90
20045;DHT22;10183;47.808;9.476;2023-12-14T05:15:36;4.80;99.90
20045;DHT22;10183;47.808;9.476;2023-12-14T05:18:23;4.80;99.90
20045;DHT22;10183;47.808;9.476;2023-12-14T05:21:09;4.80;99.90
20045;DHT22;10183;47.808;9.476;2023-12-14T05:23:55;4.80;99.90
20045;DHT22;10183;47.808;9.476;2023-12-14T05:26:41;4.70;99.90
20045;DHT22;10183;47.808;9.476;2023-12-14T05:29:27;4.70;99.90
20045;DHT22;10183;47.808;9.476;2023-12-14T05:32:13;4.70;99.90
20045;DHT22;10183;47.808;9.476;2023-12-14T05:34:59;4.70;99.90
20045;DHT22;10183;47.808;9.476;2023-12-14T05:37:45;4.70;99.90
20045;DHT22;10183;47.808;9.476;2023-12-14T05:40:31;4.70;99.90
20045;DHT22;10183;47.808;9.476;2023-12-14T05:43:17;4.70;99.90
20045;DHT22;10183;47.808;9.476;2023-12-14T05:46:03;4.70;99.90
20045;DHT22;10183;47.808;9.476;2023-12-14T05:48:50;4.70;99.90
20045;DHT22;10183;47.808;9.476;2023-12-14T05:51:36;4.70;99.90
20045;DHT22;10183;47.808;9.476;2023-12-14T05:54:23;4.70;99.90
20045;DHT22;10183;47.808;9.476;2023-12-14T05:57:09;4.70;99.90
20045;DHT22;10183;47.808;9.476;2023-12-14T05:59:58;4.70;99.90
20045;DHT22;10183;47.808;9.476;2023-12-14T06:02:44;4.70;99.90
20045;DHT22;10183;47.808;9.476;2023-12-14T06:05:30;4.70;99.90
20045;DHT22;10183;47.808;9.476;2023-12-14T06:08:16;4.70;99.90
20045;DHT22;10183;47.808;9.476;2023-12-14T06:11:02;4.70;99.90
20045;DHT22;10183;47.808;9.476;2023-12-14T06:13:48;4.70;99.90
20045;DHT22;10183;47.808;9.476;2023-12-14T06:16:34;4.70;99.90
20045;DHT22;10183;47.808;9.476;2023-12-14T06:19:20;4.70;99.90
20045;DHT22;10183;47.808;9.476;2023-12-14T06:22:06;4.60;99.90
20045;DHT22;10183;47.808;9.476;2023-12-14T06:24:52;4.60;99.90
20045;DHT22;10183;47.808;9.476;2023-12-14T06:27:39;4.60;99.90
20045;DHT22;10183;47.808;9.476;2023-12-14T06:30:25;4.60;99.90
20045;DHT22;10183;47.808;9.476;2023-12-14T06:33:11;4.60;99.90
20045;DHT22;10183;47.808;9.476;2023-12-14T06:35:57;4.60;99.90
20045;DHT22;10183;47.808;9.476;2023-12-14T06:38:43;4.60;99.90
20045;DHT22;10183;47.808;9.476;2023-12-14T06:41:29;4.60;99.90
20045;DHT22;10183;47.808;9.476;2023-12-14T06:44:15;4.60;99.90
20045;DHT22;10183;47.808;9.476;2023-12-14T06:47:02;4.60;99.90
20045;DHT22;10183;47.808;9.476;2023-12-14T06:49:48;4.60;99.90
20045;DHT22;10183;47.808;9.476;2023-12-14T06:52:35;4.60;99.90
20045;DHT22;10183;47.808;9.476;2023-12-14T06:55:21;4.60;99.90
20045;DHT22;10183;47.808;9.476;2023-12-14T06:58:07;4.70;99.90
20045;DHT22;10183;47.808;9.476;2023-12-14T07:00:57;4.60;99.90
20045;DHT22;10183;47.808;9.476;2023-12-14T07:03:44;4.60;99.90
20045;DHT22;10183;47.808;9.476;2023-12-14T07:06:30;4.60;99.90
20045;DHT22;10183;47.808;9.476;2023-12-14T07:09:16;4.60;99.90
20045;DHT22;10183;47.808;9.476;2023-12-14T07:12:02;4.60;99.90
20045;DHT22;10183;47.808;9.476;2023-12-14T07:14:48;4.50;99.90
20045;DHT22;10183;47.808;9.476;2023-12-14T07:17:34;4.60;99.90
20045;DHT22;10183;47.808;9.476;2023-12-14T07:20:20;4.60;99.90
20045;DHT22;10183;47.808;9.476;2023-12-14T07:23:07;4.60;99.90
20045;DHT22;10183;47.808;9.476;2023-12-14T07:25:53;4.60;99.90
20045;DHT22;10183;47.808;9.476;2023-12-14T07:28:38;4.60;99.90
20045;DHT22;10183;47.808;9.476;2023-12-14T07:31:24;4.60;99.90
20045;DHT22;10183;47.808;9.476;2023-12-14T07:34:11;4.60;99.90
20045;DHT22;10183;47.808;9.476;2023-12-14T07:36:56;4.60;99.90
20045;DHT22;10183;47.808;9.476;2023-12-14T07:39:42;4.60;99.90
20045;DHT22;10183;47.808;9.476;2023-12-14T07:42:28;4.60;99.90
20045;DHT22;10183;47.808;9.476;2023-12-14T07:45:14;4.60;99.90
20045;DHT22;10183;47.808;9.476;2023-12-14T07:48:00;4.60;99.90
20045;DHT22;10183;47.808;9.476;2023-12-14T07:50:46;4.60;99.90
20045;DHT22;10183;47.808;9.476;2023-12-14T07:53:34;4.60;99.90
20045;DHT22;10183;47.808;9.476;2023-12-14T07:56:20;4.70;99.90
20045;DHT22;10183;47.808;9.476;2023-12-14T07:59:11;4.70;99.90
20045;DHT22;10183;47.808;9.476;2023-12-14T08:01:57;4.70;99.90
20045;DHT22;10183;47.808;9.476;2023-12-14T08:04:43;4.70;99.90
20045;DHT22;10183;47.808;9.476;2023-12-14T08:07:29;4.70;99.90
20045;DHT22;10183;47.808;9.476;2023-12-14T08:10:15;4.70;99.90
20045;DHT22;10183;47.808;9.476;2023-12-14T08:13:01;4.70;99.90
20045;DHT22;10183;47.808;9.476;2023-12-14T08:15:47;4.70;99.90
20045;DHT22;10183;47.808;9.476;2023-12-14T08:18:33;4.80;99.90
20045;DHT22;10183;47.808;9.476;2023-12-14T08:21:19;4.80;99.90
20045;DHT22;10183;47.808;9.476;2023-12-14T08:24:05;4.80;99.90
20045;DHT22;10183;47.808;9.476;2023-12-14T08:26:51;4.90;99.90
20045;DHT22;10183;47.808;9.476;2023-12-14T08:29:37;5.00;99.90
20045;DHT22;10183;47.808;9.476;2023-12-14T08:32:23;5.00;99.90
20045;DHT22;10183;47.808;9.476;2023-12-14T08:35:09;5.00;99.90
20045;DHT22;10183;47.808;9.476;2023-12-14T08:37:55;5.10;99.90
20045;DHT22;10183;47.808;9.476;2023-12-14T08:40:40;5.10;99.90
20045;DHT22;10183;47.808;9.476;2023-12-14T08:43:26;5.00;99.90
20045;DHT22;10183;47.808;9.476;2023-12-14T08:46:12;5.00;99.90
20045;DHT22;10183;47.808;9.476;2023-12-14T08:48:58;5.10;99.90
20045;DHT22;10183;47.808;9.476;2023-12-14T08:51:44;5.10;99.90
20045;DHT22;10183;47.808;9.476;2023-12-14T08:54:31;5.00;99.90
20045;DHT22;10183;47.808;9.476;2023-12-14T08:57:17;5.10;99.90
20045;DHT22;10183;47.808;9.476;2023-12-14T09:00:03;5.10;99.90
20045;DHT22;10183;47.808;9.476;2023-12-14T09:02:52;5.10;99.90
20045;DHT22;10183;47.808;9.476;2023-12-14T09:05:38;5.10;99.90
20045;DHT22;10183;47.808;9.476;2023-12-14T09:08:27;5.10;99.90
20045;DHT22;10183;47.808;9.476;2023-12-14T09:11:13;5.10;99.90
20045;DHT22;10183;47.808;9.476;2023-12-14T09:14:00;5.10;99.90
20045;DHT22;10183;47.808;9.476;2023-12-14T09:16:46;5.10;99.90
20045;DHT22;10183;47.808;9.476;2023-12-14T09:19:33;5.00;99.90
20045;DHT22;10183;47.808;9.476;2023-12-14T09:22:18;5.00;99.90
20045;DHT22;10183;47.808;9.476;2023-12-14T09:25:05;5.00;99.90
20045;DHT22;10183;47.808;9.476;2023-12-14T09:27:51;5.10;99.90
20045;DHT22;10183;47.808;9.476;2023-12-14T09:30:37;5.30;99.90
20045;DHT22;10183;47.808;9.476;2023-12-14T09:33:23;5.40;99.90
20045;DHT22;10183;47.808;9.476;2023-12-14T09:36:09;5.20;99.90
20045;DHT22;10183;47.808;9.476;2023-12-14T09:38:55;5.30;99.90
20045;DHT22;10183;47.808;9.476;2023-12-14T09:41:41;5.10;99.90
20045;DHT22;10183;47.808;9.476;2023-12-14T09:44:27;5.20;99.90
20045;DHT22;10183;47.808;9.476;2023-12-14T09:47:13;5.30;99.90
20045;DHT22;10183;47.808;9.476;2023-12-14T09:50:00;5.30;99.90
20045;DHT22;10183;47.808;9.476;2023-12-14T09:52:46;5.20;99.90
20045;DHT22;10183;47.808;9.476;2023-12-14T09:55:34;5.40;99.90
20045;DHT22;10183;47.808;9.476;2023-12-14T09:58:21;5.30;99.90
20045;DHT22;10183;47.808;9.476;2023-12-14T10:01:26;5.30;99.90
20045;DHT22;10183;47.808;9.476;2023-12-14T10:04:17;5.40;99.90
20045;DHT22;10183;47.808;9.476;2023-12-14T10:07:03;5.30;99.90
20045;DHT22;10183;47.808;9.476;2023-12-14T10:09:52;5.40;99.90
20045;DHT22;10183;47.808;9.476;2023-12-14T10:12:52;5.30;99.90
20045;DHT22;10183;47.808;9.476;2023-12-14T10:15:47;5.30;99.90
20045;DHT22;10183;47.808;9.476;2023-12-14T10:18:34;5.40;99.90
20045;DHT22;10183;47.808;9.476;2023-12-14T10:21:20;5.40;99.90
20045;DHT22;10183;47.808;9.476;2023-12-14T10:24:06;5.60;99.90
20045;DHT22;10183;47.808;9.476;2023-12-14T10:26:52;5.60;99.90
20045;DHT22;10183;47.808;9.476;2023-12-14T10:29:38;5.70;99.90
20045;DHT22;10183;47.808;9.476;2023-12-14T10:32:25;5.60;99.90
20045;DHT22;10183;47.808;9.476;2023-12-14T10:35:11;5.70;99.90
20045;DHT22;10183;47.808;9.476;2023-12-14T10:38:02;5.90;99.90
20045;DHT22;10183;47.808;9.476;2023-12-14T10:40:49;5.90;99.90
20045;DHT22;10183;47.808;9.476;2023-12-14T10:43:36;5.90;99.90
20045;DHT22;10183;47.808;9.476;2023-12-14T10:46:25;5.80;99.90
20045;DHT22;10183;47.808;9.476;2023-12-14T10:49:12;5.80;99.90
20045;DHT22;10183;47.808;9.476;2023-12-14T10:51:59;5.80;99.90
20045;DHT22;10183;47.808;9.476;2023-12-14T10:54:46;5.70;99.90
20045;DHT22;10183;47.808;9.476;2023-12-14T10:57:35;5.70;99.90
20045;DHT22;10183;47.808;9.476;2023-12-14T11:00:21;5.70;99.90
20045;DHT22;10183;47.808;9.476;2023-12-14T11:03:07;5.80;99.90
20045;DHT22;10183;47.808;9.476;2023-12-14T11:05:53;5.70;99.90
20045;DHT22;10183;47.808;9.476;2023-12-14T11:08:38;5.60;99.90
20045;DHT22;10183;47.808;9.476;2023-12-14T11:11:28;5.60;99.90
20045;DHT22;10183;47.808;9.476;2023-12-14T11:14:14;5.60;99.90
20045;DHT22;10183;47.808;9.476;2023-12-14T11:17:07;5.70;99.90
20045;DHT22;10183;47.808;9.476;2023-12-14T11:19:55;5.60;99.90
20045;DHT22;10183;47.808;9.476;2023-12-14T11:22:43;5.60;99.90
20045;DHT22;10183;47.808;9.476;2023-12-14T11:25:30;5.60;99.90
20045;DHT22;10183;47.808;9.476;2023-12-14T11:28:16;5.70;99.90
20045;DHT22;10183;47.808;9.476;2023-12-14T11:31:02;5.50;99.90
20045;DHT22;10183;47.808;9.476;2023-12-14T11:33:51;5.50;99.90
20045;DHT22;10183;47.808;9.476;2023-12-14T11:36:39;5.60;99.90
20045;DHT22;10183;47.808;9.476;2023-12-14T11:39:30;5.60;99.90
20045;DHT22;10183;47.808;9.476;2023-12-14T11:42:18;5.50;99.90
20045;DHT22;10183;47.808;9.476;2023-12-14T11:45:04;5.70;99.90
20045;DHT22;10183;47.808;9.476;2023-12-14T11:47:51;5.70;99.90
20045;DHT22;10183;47.808;9.476;2023-12-14T11:50:38;5.70;99.90
20045;DHT22;10183;47.808;9.476;2023-12-14T11:53:24;5.60;99.90
20045;DHT22;10183;47.808;9.476;2023-12-14T11:56:10;5.70;99.90
20045;DHT22;10183;47.808;9.476;2023-12-14T11:58:56;5.70;99.90
20045;DHT22;10183;47.808;9.476;2023-12-14T12:02:00;5.70;99.90
20045;DHT22;10183;47.808;9.476;2023-12-14T12:04:52;5.70;99.90
20045;DHT22;10183;47.808;9.476;2023-12-14T12:07:39;5.70;99.90
20045;DHT22;10183;47.808;9.476;2023-12-14T12:10:29;5.60;99.90
20045;DHT22;10183;47.808;9.476;2023-12-14T12:13:20;5.70;99.90
20045;DHT22;10183;47.808;9.476;2023-12-14T12:16:06;5.70;99.90
20045;DHT22;10183;47.808;9.476;2023-12-14T12:18:52;5.60;99.90
20045;DHT22;10183;47.808;9.476;2023-12-14T12:21:38;5.70;99.90
20045;DHT22;10183;47.808;9.476;2023-12-14T12:24:24;5.70;99.90
20045;DHT22;10183;47.808;9.476;2023-12-14T12:27:10;5.70;99.90
20045;DHT22;10183;47.808;9.476;2023-12-14T12:29:56;5.80;99.90
20045;DHT22;10183;47.808;9.476;2023-12-14T12:32:41;5.70;99.90
20045;DHT22;10183;47.808;9.476;2023-12-14T12:35:27;5.80;99.90
20045;DHT22;10183;47.808;9.476;2023-12-14T12:38:16;5.80;99.90
20045;DHT22;10183;47.808;9.476;2023-12-14T12:41:02;6.00;99.90
20045;DHT22;10183;47.808;9.476;2023-12-14T12:43:48;6.10;99.90
20045;DHT22;10183;47.808;9.476;2023-12-14T12:46:35;6.30;99.90
20045;DHT22;10183;47.808;9.476;2023-12-14T12:49:21;6.30;99.90
20045;DHT22;10183;47.808;9.476;2023-12-14T12:52:07;6.30;99.90
20045;DHT22;10183;47.808;9.476;2023-12-14T12:54:53;6.20;99.90
20045;DHT22;10183;47.808;9.476;2023-12-14T12:57:39;6.30;99.90
20045;DHT22;10183;47.808;9.476;2023-12-14T13:00:25;6.30;99.90
20045;DHT22;10183;47.808;9.476;2023-12-14T13:03:11;6.50;99.90
20045;DHT22;10183;47.808;9.476;2023-12-14T13:05:58;6.50;99.90
20045;DHT22;10183;47.808;9.476;2023-12-14T13:08:44;6.70;99.90
20045;DHT22;10183;47.808;9.476;2023-12-14T13:11:30;6.30;99.90
20045;DHT22;10183;47.808;9.476;2023-12-14T13:14:16;6.30;99.90
20045;DHT22;10183;47.808;9.476;2023-12-14T13:17:02;6.20;99.90
20045;DHT22;10183;47.808;9.476;2023-12-14T13:19:48;6.00;99.90
20045;DHT22;10183;47.808;9.476;2023-12-14T13:22:34;6.10;99.90
20045;DHT22;10183;47.808;9.476;2023-12-14T13:25:20;6.10;99.90
20045;DHT22;10183;47.808;9.476;2023-12-14T13:28:08;6.00;99.90
20045;DHT22;10183;47.808;9.476;2023-12-14T13:30:54;5.90;99.90
20045;DHT22;10183;47.808;9.476;2023-12-14T13:33:40;5.80;99.90
20045;DHT22;10183;47.808;9.476;2023-12-14T13:36:26;6.00;99.90
20045;DHT22;10183;47.808;9.476;2023-12-14T13:39:13;6.00;99.90
20045;DHT22;10183;47.808;9.476;2023-12-14T13:41:59;6.20;99.90
20045;DHT22;10183;47.808;9.476;2023-12-14T13:44:45;6.20;99.90
20045;DHT22;10183;47.808;9.476;2023-12-14T13:47:31;6.20;99.90
20045;DHT22;10183;47.808;9.476;2023-12-14T13:50:17;6.20;99.90
20045;DHT22;10183;47.808;9.476;2023-12-14T13:53:04;6.20;99.90
20045;DHT22;10183;47.808;9.476;2023-12-14T13:55:50;6.10;99.90
20045;DHT22;10183;47.808;9.476;2023-12-14T13:58:36;6.00;99.90
20045;DHT22;10183;47.808;9.476;2023-12-14T14:01:24;6.00;99.90
20045;DHT22;10183;47.808;9.476;2023-12-14T14:04:10;6.10;99.90
20045;DHT22;10183;47.808;9.476;2023-12-14T14:06:56;6.40;99.90
20045;DHT22;10183;47.808;9.476;2023-12-14T14:09:42;6.80;99.90
20045;DHT22;10183;47.808;9.476;2023-12-14T14:12:28;6.60;99.90
20045;DHT22;10183;47.808;9.476;2023-12-14T14:15:14;6.30;99.90
20045;DHT22;10183;47.808;9.476;2023-12-14T14:18:00;5.70;99.90
20045;DHT22;10183;47.808;9.476;2023-12-14T14:20:46;5.40;99.90
20045;DHT22;10183;47.808;9.476;2023-12-14T14:23:32;5.20;99.90
20045;DHT22;10183;47.808;9.476;2023-12-14T14:26:18;5.00;99.90
20045;DHT22;10183;47.808;9.476;2023-12-14T14:29:04;5.10;99.90
20045;DHT22;10183;47.808;9.476;2023-12-14T14:31:50;5.10;99.90
20045;DHT22;10183;47.808;9.476;2023-12-14T14:34:36;5.10;99.90
20045;DHT22;10183;47.808;9.476;2023-12-14T14:37:22;5.20;99.90
20045;DHT22;10183;47.808;9.476;2023-12-14T14:40:08;5.20;99.90
20045;DHT22;10183;47.808;9.476;2023-12-14T14:42:54;5.10;99.90
20045;DHT22;10183;47.808;9.476;2023-12-14T14:45:40;5.10;99.90
20045;DHT22;10183;47.808;9.476;2023-12-14T14:48:26;4.90;99.90
20045;DHT22;10183;47.808;9.476;2023-12-14T14:51:12;4.80;99.90
20045;DHT22;10183;47.808;9.476;2023-12-14T14:53:58;4.80;99.90
20045;DHT22;10183;47.808;9.476;2023-12-14T14:56:44;4.90;99.90
20045;DHT22;10183;47.808;9.476;2023-12-14T14:59:30;4.80;99.90
20045;DHT22;10183;47.808;9.476;2023-12-14T15:02:16;4.80;99.90
20045;DHT22;10183;47.808;9.476;2023-12-14T15:05:02;4.70;99.90
20045;DHT22;10183;47.808;9.476;2023-12-14T15:07:48;4.80;99.90
20045;DHT22;10183;47.808;9.476;2023-12-14T15:10:34;4.90;99.90
20045;DHT22;10183;47.808;9.476;2023-12-14T15:13:20;4.90;99.90
20045;DHT22;10183;47.808;9.476;2023-12-14T15:16:07;4.90;99.90
20045;DHT22;10183;47.808;9.476;2023-12-14T15:18:53;4.90;99.90
20045;DHT22;10183;47.808;9.476;2023-12-14T15:21:39;5.00;99.90
20045;DHT22;10183;47.808;9.476;2023-12-14T15:24:25;5.00;99.90
20045;DHT22;10183;47.808;9.476;2023-12-14T15:27:11;4.90;99.90
20045;DHT22;10183;47.808;9.476;2023-12-14T15:29:57;4.90;99.90
20045;DHT22;10183;47.808;9.476;2023-12-14T15:32:43;4.90;99.90
20045;DHT22;10183;47.808;9.476;2023-12-14T15:35:29;4.90;99.90
20045;DHT22;10183;47.808;9.476;2023-12-14T15:38:15;4.80;99.90
20045;DHT22;10183;47.808;9.476;2023-12-14T15:41:01;4.70;99.90
20045;DHT22;10183;47.808;9.476;2023-12-14T15:43:47;4.50;99.90
20045;DHT22;10183;47.808;9.476;2023-12-14T15:46:33;4.60;99.90
20045;DHT22;10183;47.808;9.476;2023-12-14T15:49:19;4.60;99.90
20045;DHT22;10183;47.808;9.476;2023-12-14T15:52:05;4.60;99.90
20045;DHT22;10183;47.808;9.476;2023-12-14T15:54:51;4.60;99.90
20045;DHT22;10183;47.808;9.476;2023-12-14T15:57:37;4.50;99.90
20045;DHT22;10183;47.808;9.476;2023-12-14T16:00:23;4.50;99.90
20045;DHT22;10183;47.808;9.476;2023-12-14T16:03:09;4.40;99.90
20045;DHT22;10183;47.808;9.476;2023-12-14T16:05:55;4.40;99.90
20045;DHT22;10183;47.808;9.476;2023-12-14T16:08:41;4.40;99.90
20045;DHT22;10183;47.808;9.476;2023-12-14T16:11:27;4.40;99.90
20045;DHT22;10183;47.808;9.476;2023-12-14T16:14:13;4.50;99.90
20045;DHT22;10183;47.808;9.476;2023-12-14T16:16:59;4.50;99.90
20045;DHT22;10183;47.808;9.476;2023-12-14T16:19:45;4.40;99.90
20045;DHT22;10183;47.808;9.476;2023-12-14T16:22:31;4.50;99.90
20045;DHT22;10183;47.808;9.476;2023-12-14T16:25:17;4.50;99.90
20045;DHT22;10183;47.808;9.476;2023-12-14T16:28:03;4.60;99.90
20045;DHT22;10183;47.808;9.476;2023-12-14T16:30:50;4.60;99.90
20045;DHT22;10183;47.808;9.476;2023-12-14T16:33:39;4.70;99.90
20045;DHT22;10183;47.808;9.476;2023-12-14T16:36:25;4.70;99.90
20045;DHT22;10183;47.808;9.476;2023-12-14T16:39:11;4.70;99.90
20045;DHT22;10183;47.808;9.476;2023-12-14T16:41:57;4.80;99.90
20045;DHT22;10183;47.808;9.476;2023-12-14T16:44:43;4.80;99.90
20045;DHT22;10183;47.808;9.476;2023-12-14T16:47:29;4.80;99.90
20045;DHT22;10183;47.808;9.476;2023-12-14T16:50:16;4.80;99.90
20045;DHT22;10183;47.808;9.476;2023-12-14T16:53:02;4.90;99.90
20045;DHT22;10183;47.808;9.476;2023-12-14T16:55:49;4.90;99.90
20045;DHT22;10183;47.808;9.476;2023-12-14T16:58:36;4.90;99.90
20045;DHT22;10183;47.808;9.476;2023-12-14T17:01:24;4.90;99.90
20045;DHT22;10183;47.808;9.476;2023-12-14T17:04:11;4.90;99.90
20045;DHT22;10183;47.808;9.476;2023-12-14T17:06:57;4.90;99.90
20045;DHT22;10183;47.808;9.476;2023-12-14T17:09:43;4.90;99.90
20045;DHT22;10183;47.808;9.476;2023-12-14T17:12:29;4.90;99.90
20045;DHT22;10183;47.808;9.476;2023-12-14T17:15:15;5.00;99.90
20045;DHT22;10183;47.808;9.476;2023-12-14T17:18:01;5.00;99.90
20045;DHT22;10183;47.808;9.476;2023-12-14T17:20:47;4.90;99.90
20045;DHT22;10183;47.808;9.476;2023-12-14T17:23:33;4.90;99.90
20045;DHT22;10183;47.808;9.476;2023-12-14T17:26:19;4.80;99.90
20045;DHT22;10183;47.808;9.476;2023-12-14T17:29:05;4.90;99.90
20045;DHT22;10183;47.808;9.476;2023-12-14T17:31:55;4.90;99.90
20045;DHT22;10183;47.808;9.476;2023-12-14T17:34:41;4.90;99.90
20045;DHT22;10183;47.808;9.476;2023-12-14T17:37:27;4.90;99.90
20045;DHT22;10183;47.808;9.476;2023-12-14T17:40:13;4.80;99.90
20045;DHT22;10183;47.808;9.476;2023-12-14T17:42:59;4.80;99.90
20045;DHT22;10183;47.808;9.476;2023-12-14T17:45:45;4.90;99.90
20045;DHT22;10183;47.808;9.476;2023-12-14T17:48:31;4.90;99.90